createdAt,value
2017-08-23T00:00:26.199Z,0
2017-08-23T00:01:29.076Z,0
2017-08-23T00:02:32.611Z,0
2017-08-23T00:03:35.109Z,0
2017-08-23T00:04:38.277Z,0
2017-08-23T00:05:41.117Z,0
2017-08-23T00:06:43.590Z,0
2017-08-23T00:07:46.434Z,0
2017-08-23T00:08:49.282Z,0
2017-08-23T00:09:52.153Z,0
2017-08-23T00:10:54.824Z,0
2017-08-23T00:11:57.654Z,0
2017-08-23T00:13:00.486Z,0
2017-08-23T00:14:03.351Z,0
2017-08-23T00:15:06.875Z,0
2017-08-23T00:16:09.380Z,0
2017-08-23T00:17:12.225Z,0
2017-08-23T00:18:14.726Z,0
2017-08-23T00:19:17.223Z,0
2017-08-23T00:20:19.729Z,0
2017-08-23T00:21:22.583Z,0
2017-08-23T00:22:25.106Z,0
2017-08-23T00:23:27.615Z,0
2017-08-23T00:24:30.453Z,0
2017-08-23T00:25:32.940Z,0
2017-08-23T00:26:36.995Z,0
2017-08-23T00:27:39.698Z,0
2017-08-23T00:28:42.205Z,0
2017-08-23T00:29:44.710Z,0
2017-08-23T00:30:47.199Z,0
2017-08-23T00:31:49.693Z,0
2017-08-23T00:32:52.216Z,0
2017-08-23T00:33:55.390Z,0
2017-08-23T00:34:57.875Z,0
2017-08-23T00:36:01.050Z,0
2017-08-23T00:37:03.883Z,0
2017-08-23T00:38:06.427Z,0
2017-08-23T00:39:08.929Z,0
2017-08-23T00:40:11.424Z,0
2017-08-23T00:41:14.659Z,0
2017-08-23T00:42:17.618Z,0
2017-08-23T00:43:20.296Z,0
2017-08-23T00:44:23.378Z,0
2017-08-23T00:45:27.231Z,0
2017-08-23T00:46:30.219Z,0
2017-08-23T00:47:33.191Z,0
2017-08-23T00:48:36.334Z,0
2017-08-23T00:49:39.313Z,0
2017-08-23T00:50:41.840Z,0
2017-08-23T00:51:45.019Z,0
2017-08-23T00:52:48.193Z,0
2017-08-23T00:53:50.685Z,0
2017-08-23T00:54:53.519Z,0
2017-08-23T00:55:56.033Z,0
2017-08-23T00:56:58.520Z,0
2017-08-23T00:58:01.705Z,0
2017-08-23T00:59:04.560Z,0
2017-08-23T01:00:07.745Z,0
2017-08-23T01:01:10.581Z,0
2017-08-23T01:02:13.083Z,0
2017-08-23T01:03:15.584Z,0
2017-08-23T01:04:18.769Z,0
2017-08-23T01:05:21.270Z,0
2017-08-23T01:06:23.757Z,0
2017-08-23T01:07:26.260Z,0
2017-08-23T01:08:29.096Z,0
2017-08-23T01:09:31.606Z,0
2017-08-23T01:10:34.111Z,0
2017-08-23T01:11:36.611Z,0
2017-08-23T01:12:39.118Z,0
2017-08-23T01:13:42.665Z,0
2017-08-23T01:14:45.498Z,0
2017-08-23T01:15:47.997Z,0
2017-08-23T01:16:50.513Z,0
2017-08-23T01:17:53.005Z,0
2017-08-23T01:18:55.514Z,0
2017-08-23T01:19:58.344Z,0
2017-08-23T01:21:00.830Z,0
2017-08-23T01:22:04.019Z,0
2017-08-23T01:23:06.541Z,0
2017-08-23T01:24:09.728Z,0
2017-08-23T01:25:12.561Z,0
2017-08-23T01:26:15.064Z,0
2017-08-23T01:27:17.580Z,0
2017-08-23T01:28:20.082Z,0
2017-08-23T01:29:22.922Z,0
2017-08-23T01:30:25.403Z,0
2017-08-23T01:31:27.907Z,0
2017-08-23T01:32:30.409Z,0
2017-08-23T01:33:32.900Z,0
2017-08-23T01:34:35.404Z,0
2017-08-23T01:35:37.907Z,0
2017-08-23T01:36:40.434Z,0
2017-08-23T01:37:42.957Z,0
2017-08-23T01:38:45.444Z,0
2017-08-23T01:39:48.283Z,0
2017-08-23T01:40:51.116Z,0
2017-08-23T01:41:53.963Z,0
2017-08-23T01:42:56.462Z,0
2017-08-23T01:43:58.963Z,0
2017-08-23T01:45:01.459Z,0
2017-08-23T01:46:04.314Z,0
2017-08-23T01:47:06.827Z,0
2017-08-23T01:48:10.014Z,0
2017-08-23T01:49:12.858Z,0
2017-08-23T01:50:16.385Z,0
2017-08-23T01:51:19.217Z,0
2017-08-23T01:52:22.389Z,0
2017-08-23T01:53:24.905Z,0
2017-08-23T01:54:27.728Z,0
2017-08-23T01:55:30.902Z,0
2017-08-23T01:56:34.451Z,0
2017-08-23T01:57:36.945Z,0
2017-08-23T01:58:39.443Z,0
2017-08-23T01:59:42.620Z,0
2017-08-23T02:00:45.450Z,0
2017-08-23T02:01:47.948Z,0
2017-08-23T02:02:50.787Z,0
2017-08-23T02:03:53.634Z,0
2017-08-23T02:04:56.162Z,0
2017-08-23T02:05:59.684Z,0
2017-08-23T02:07:03.204Z,0
2017-08-23T02:08:06.390Z,0
2017-08-23T02:09:09.218Z,0
2017-08-23T02:10:12.397Z,0
2017-08-23T02:11:15.238Z,0
2017-08-23T02:12:17.735Z,0
2017-08-23T02:13:20.230Z,0
2017-08-23T02:14:22.746Z,0
2017-08-23T02:15:25.594Z,0
2017-08-23T02:16:28.090Z,0
2017-08-23T02:17:30.599Z,0
2017-08-23T02:18:33.407Z,0
2017-08-23T02:19:35.914Z,0
2017-08-23T02:20:38.405Z,0
2017-08-23T02:21:41.252Z,0
2017-08-23T02:22:44.068Z,0
2017-08-23T02:23:46.567Z,0
2017-08-23T02:24:49.067Z,0
2017-08-23T02:25:51.910Z,0
2017-08-23T02:26:55.082Z,0
2017-08-23T02:27:57.575Z,0
2017-08-23T02:29:00.060Z,0
2017-08-23T02:30:02.598Z,0
2017-08-23T02:31:06.141Z,0
2017-08-23T02:32:08.642Z,0
2017-08-23T02:33:11.153Z,0
2017-08-23T02:34:14.669Z,0
2017-08-23T02:35:17.524Z,0
2017-08-23T02:36:20.377Z,0
2017-08-23T02:37:23.212Z,0
2017-08-23T02:38:25.710Z,0
2017-08-23T02:39:28.553Z,0
2017-08-23T02:40:31.399Z,0
2017-08-23T02:41:34.922Z,0
2017-08-23T02:42:37.454Z,0
2017-08-23T02:43:40.628Z,0
2017-08-23T02:44:43.159Z,0
2017-08-23T02:45:45.648Z,0
2017-08-23T02:46:48.475Z,0
2017-08-23T02:47:51.675Z,0
2017-08-23T02:48:54.183Z,0
2017-08-23T02:49:57.036Z,0
2017-08-23T02:51:00.556Z,0
2017-08-23T02:52:03.728Z,0
2017-08-23T02:53:06.223Z,0
2017-08-23T02:54:09.078Z,0
2017-08-23T02:55:11.572Z,0
2017-08-23T02:56:14.084Z,0
2017-08-23T02:57:16.585Z,0
2017-08-23T02:58:19.425Z,0
2017-08-23T02:59:21.939Z,0
2017-08-23T03:00:24.456Z,0
2017-08-23T03:01:26.968Z,0
2017-08-23T03:02:29.836Z,0
2017-08-23T03:03:32.999Z,0
2017-08-23T03:04:35.498Z,0
2017-08-23T03:05:38.001Z,0
2017-08-23T03:06:40.507Z,0
2017-08-23T03:07:43.022Z,0
2017-08-23T03:08:45.876Z,0
2017-08-23T03:09:48.372Z,0
2017-08-23T03:10:50.881Z,0
2017-08-23T03:11:53.373Z,0
2017-08-23T03:12:55.873Z,0
2017-08-23T03:13:58.368Z,0
2017-08-23T03:15:00.882Z,0
2017-08-23T03:16:03.389Z,0
2017-08-23T03:17:05.906Z,0
2017-08-23T03:18:08.385Z,0
2017-08-23T03:19:10.886Z,0
2017-08-23T03:20:13.392Z,0
2017-08-23T03:21:16.231Z,0
2017-08-23T03:22:19.067Z,0
2017-08-23T03:23:21.567Z,0
2017-08-23T03:24:24.072Z,0
2017-08-23T03:25:26.607Z,0
2017-08-23T03:26:29.466Z,0
2017-08-23T03:27:32.327Z,0
2017-08-23T03:28:35.183Z,0
2017-08-23T03:29:37.677Z,0
2017-08-23T03:30:40.196Z,0
2017-08-23T03:31:42.710Z,0
2017-08-23T03:32:45.557Z,0
2017-08-23T03:33:48.064Z,0
2017-08-23T03:34:50.572Z,0
2017-08-23T03:35:53.081Z,0
2017-08-23T03:36:55.922Z,0
2017-08-23T03:37:58.420Z,0
2017-08-23T03:39:00.920Z,0
2017-08-23T03:40:03.764Z,0
2017-08-23T03:41:06.268Z,0
2017-08-23T03:42:08.780Z,0
2017-08-23T03:43:11.611Z,0
2017-08-23T03:44:14.109Z,0
2017-08-23T03:45:16.948Z,0
2017-08-23T03:46:19.437Z,0
2017-08-23T03:47:22.279Z,0
2017-08-23T03:48:25.452Z,0
2017-08-23T03:49:28.968Z,0
2017-08-23T03:50:32.162Z,0
2017-08-23T03:51:34.983Z,0
2017-08-23T03:52:37.829Z,0
2017-08-23T03:53:40.672Z,0
2017-08-23T03:54:44.530Z,0
2017-08-23T03:55:47.719Z,0
2017-08-23T03:56:50.888Z,0
2017-08-23T03:57:53.390Z,0
2017-08-23T03:58:55.903Z,1
2017-08-23T03:59:59.081Z,1
2017-08-23T04:01:02.590Z,1
2017-08-23T04:02:05.439Z,1
2017-08-23T04:03:07.935Z,1
2017-08-23T04:04:10.437Z,1
2017-08-23T04:05:12.966Z,1
2017-08-23T04:06:15.456Z,1
2017-08-23T04:07:18.311Z,2
2017-08-23T04:08:20.820Z,2
2017-08-23T04:09:23.318Z,2
2017-08-23T04:10:25.835Z,2
2017-08-23T04:11:28.329Z,2
2017-08-23T04:12:30.827Z,2
2017-08-23T04:13:33.312Z,3
2017-08-23T04:14:36.483Z,3
2017-08-23T04:15:38.985Z,3
2017-08-23T04:16:41.487Z,3
2017-08-23T04:17:44.674Z,3
2017-08-23T04:18:47.188Z,4
2017-08-23T04:19:50.014Z,4
2017-08-23T04:20:52.863Z,4
2017-08-23T04:21:56.061Z,5
2017-08-23T04:22:58.552Z,5
2017-08-23T04:24:01.050Z,5
2017-08-23T04:25:04.266Z,5
2017-08-23T04:26:06.752Z,6
2017-08-23T04:27:09.924Z,6
2017-08-23T04:28:12.430Z,6
2017-08-23T04:29:14.948Z,7
2017-08-23T04:30:17.457Z,7
2017-08-23T04:31:20.287Z,7
2017-08-23T04:32:23.107Z,7
2017-08-23T04:33:25.962Z,8
2017-08-23T04:34:29.181Z,8
2017-08-23T04:35:31.681Z,8
2017-08-23T04:36:34.203Z,8
2017-08-23T04:37:37.376Z,9
2017-08-23T04:38:39.878Z,9
2017-08-23T04:39:42.386Z,9
2017-08-23T04:40:45.222Z,9
2017-08-23T04:41:48.752Z,10
2017-08-23T04:42:51.596Z,10
2017-08-23T04:43:55.109Z,10
2017-08-23T04:44:57.638Z,10
2017-08-23T04:46:00.481Z,10
2017-08-23T04:47:04.003Z,11
2017-08-23T04:48:07.520Z,11
2017-08-23T04:49:10.010Z,11
2017-08-23T04:50:12.856Z,12
2017-08-23T04:51:15.353Z,12
2017-08-23T04:52:18.188Z,12
2017-08-23T04:53:21.017Z,13
2017-08-23T04:54:23.854Z,13
2017-08-23T04:55:26.719Z,13
2017-08-23T04:56:29.256Z,14
2017-08-23T04:57:32.103Z,14
2017-08-23T04:58:34.946Z,14
2017-08-23T04:59:37.456Z,14
2017-08-23T05:00:40.292Z,15
2017-08-23T05:01:43.462Z,15
2017-08-23T05:02:46.302Z,16
2017-08-23T05:03:48.791Z,16
2017-08-23T05:04:51.983Z,16
2017-08-23T05:05:55.173Z,17
2017-08-23T05:06:58.340Z,17
2017-08-23T05:08:01.188Z,18
2017-08-23T05:09:03.691Z,17
2017-08-23T05:10:06.924Z,18
2017-08-23T05:11:09.764Z,18
2017-08-23T05:12:12.602Z,19
2017-08-23T05:13:15.090Z,19
2017-08-23T05:14:17.925Z,19
2017-08-23T05:15:20.426Z,20
2017-08-23T05:16:24.275Z,20
2017-08-23T05:17:27.140Z,20
2017-08-23T05:18:29.973Z,21
2017-08-23T05:19:32.482Z,21
2017-08-23T05:20:35.342Z,22
2017-08-23T05:21:38.189Z,22
2017-08-23T05:22:40.679Z,23
2017-08-23T05:23:43.536Z,23
2017-08-23T05:24:46.046Z,24
2017-08-23T05:25:48.875Z,25
2017-08-23T05:26:51.710Z,26
2017-08-23T05:27:55.218Z,27
2017-08-23T05:28:58.041Z,27
2017-08-23T05:30:01.223Z,28
2017-08-23T05:31:03.734Z,28
2017-08-23T05:32:06.575Z,29
2017-08-23T05:33:09.411Z,30
2017-08-23T05:34:11.935Z,30
2017-08-23T05:35:14.434Z,31
2017-08-23T05:36:16.941Z,31
2017-08-23T05:37:19.451Z,31
2017-08-23T05:38:21.948Z,30
2017-08-23T05:39:25.152Z,30
2017-08-23T05:40:27.655Z,31
2017-08-23T05:41:30.487Z,31
2017-08-23T05:42:33.685Z,31
2017-08-23T05:43:36.504Z,32
2017-08-23T05:44:39.024Z,32
2017-08-23T05:45:41.892Z,33
2017-08-23T05:46:44.734Z,33
2017-08-23T05:47:47.587Z,34
2017-08-23T05:48:50.100Z,35
2017-08-23T05:49:52.920Z,35
2017-08-23T05:50:55.756Z,35
2017-08-23T05:51:58.933Z,34
2017-08-23T05:53:01.439Z,35
2017-08-23T05:54:04.288Z,36
2017-08-23T05:55:06.854Z,36
2017-08-23T05:56:09.355Z,36
2017-08-23T05:57:12.216Z,37
2017-08-23T05:58:14.703Z,37
2017-08-23T05:59:17.550Z,37
2017-08-23T06:00:20.042Z,38
2017-08-23T06:01:22.915Z,38
2017-08-23T06:02:26.108Z,38
2017-08-23T06:03:28.620Z,39
2017-08-23T06:04:31.459Z,38
2017-08-23T06:05:34.006Z,40
2017-08-23T06:06:36.512Z,41
2017-08-23T06:07:39.335Z,41
2017-08-23T06:08:41.840Z,42
2017-08-23T06:09:45.043Z,43
2017-08-23T06:10:47.885Z,43
2017-08-23T06:11:50.718Z,44
2017-08-23T06:12:53.561Z,44
2017-08-23T06:13:56.059Z,44
2017-08-23T06:14:58.599Z,44
2017-08-23T06:16:02.461Z,44
2017-08-23T06:17:05.285Z,45
2017-08-23T06:18:08.473Z,45
2017-08-23T06:19:11.359Z,45
2017-08-23T06:20:13.864Z,46
2017-08-23T06:21:16.370Z,46
2017-08-23T06:22:19.226Z,47
2017-08-23T06:23:22.410Z,48
2017-08-23T06:24:25.264Z,47
2017-08-23T06:25:28.102Z,47
2017-08-23T06:26:30.615Z,46
2017-08-23T06:27:33.124Z,48
2017-08-23T06:28:35.641Z,49
2017-08-23T06:29:38.129Z,50
2017-08-23T06:30:40.981Z,51
2017-08-23T06:31:43.815Z,51
2017-08-23T06:32:47.037Z,51
2017-08-23T06:33:50.600Z,51
2017-08-23T06:34:53.786Z,51
2017-08-23T06:35:56.623Z,52
2017-08-23T06:36:59.154Z,52
2017-08-23T06:38:02.332Z,53
2017-08-23T06:39:05.174Z,54
2017-08-23T06:40:08.016Z,55
2017-08-23T06:41:10.542Z,55
2017-08-23T06:42:13.369Z,55
2017-08-23T06:43:16.217Z,55
2017-08-23T06:44:18.715Z,55
2017-08-23T06:45:21.897Z,56
2017-08-23T06:46:24.443Z,56
2017-08-23T06:47:26.957Z,56
2017-08-23T06:48:29.454Z,57
2017-08-23T06:49:31.969Z,57
2017-08-23T06:50:34.470Z,57
2017-08-23T06:51:37.318Z,58
2017-08-23T06:52:39.816Z,58
2017-08-23T06:53:42.674Z,59
2017-08-23T06:54:45.513Z,59
2017-08-23T06:55:48.019Z,59
2017-08-23T06:56:50.539Z,59
2017-08-23T06:57:53.709Z,59
2017-08-23T06:58:56.213Z,60
2017-08-23T06:59:58.731Z,60
2017-08-23T07:01:01.241Z,60
2017-08-23T07:02:03.744Z,61
2017-08-23T07:03:06.604Z,61
2017-08-23T07:04:09.107Z,61
2017-08-23T07:05:11.979Z,62
2017-08-23T07:06:14.810Z,63
2017-08-23T07:07:17.302Z,64
2017-08-23T07:08:20.147Z,66
2017-08-23T07:09:23.010Z,68
2017-08-23T07:10:25.520Z,72
2017-08-23T07:11:28.022Z,74
2017-08-23T07:12:30.508Z,77
2017-08-23T07:13:33.020Z,80
2017-08-23T07:14:36.201Z,80
2017-08-23T07:15:38.721Z,78
2017-08-23T07:16:41.225Z,73
2017-08-23T07:17:44.093Z,72
2017-08-23T07:18:46.932Z,72
2017-08-23T07:19:50.114Z,72
2017-08-23T07:20:52.612Z,72
2017-08-23T07:21:55.473Z,72
2017-08-23T07:22:58.324Z,73
2017-08-23T07:24:01.521Z,74
2017-08-23T07:25:04.366Z,73
2017-08-23T07:26:07.213Z,73
2017-08-23T07:27:09.931Z,72
2017-08-23T07:28:12.784Z,71
2017-08-23T07:29:15.838Z,71
2017-08-23T07:30:18.728Z,71
2017-08-23T07:31:21.287Z,71
2017-08-23T07:32:23.951Z,71
2017-08-23T07:33:26.466Z,71
2017-08-23T07:34:28.987Z,71
2017-08-23T07:35:31.872Z,72
2017-08-23T07:36:34.705Z,72
2017-08-23T07:37:37.965Z,73
2017-08-23T07:38:41.153Z,73
2017-08-23T07:39:43.669Z,73
2017-08-23T07:40:46.204Z,73
2017-08-23T07:41:49.069Z,73
2017-08-23T07:42:51.579Z,73
2017-08-23T07:43:54.082Z,73
2017-08-23T07:44:56.936Z,74
2017-08-23T07:45:59.463Z,74
2017-08-23T07:47:01.972Z,75
2017-08-23T07:48:04.810Z,75
2017-08-23T07:49:07.675Z,76
2017-08-23T07:50:10.179Z,76
2017-08-23T07:51:13.033Z,76
2017-08-23T07:52:15.553Z,77
2017-08-23T07:53:18.086Z,77
2017-08-23T07:54:21.808Z,78
2017-08-23T07:55:24.313Z,80
2017-08-23T07:56:26.842Z,79
2017-08-23T07:57:29.675Z,80
2017-08-23T07:58:32.197Z,80
2017-08-23T07:59:35.050Z,80
2017-08-23T08:00:38.231Z,80
2017-08-23T08:01:41.089Z,80
2017-08-23T08:02:44.289Z,99
2017-08-23T08:03:46.792Z,205
2017-08-23T08:04:49.670Z,283
2017-08-23T08:05:52.520Z,292
2017-08-23T08:06:55.068Z,293
2017-08-23T08:07:57.952Z,290
2017-08-23T08:09:00.482Z,306
2017-08-23T08:10:03.654Z,332
2017-08-23T08:11:06.179Z,323
2017-08-23T08:12:08.686Z,320
2017-08-23T08:13:11.211Z,296
2017-08-23T08:14:14.065Z,277
2017-08-23T08:15:16.916Z,264
2017-08-23T08:16:19.444Z,250
2017-08-23T08:17:21.970Z,242
2017-08-23T08:18:24.489Z,245
2017-08-23T08:19:27.666Z,252
2017-08-23T08:20:30.178Z,257
2017-08-23T08:21:33.516Z,266
2017-08-23T08:22:36.212Z,330
2017-08-23T08:23:38.724Z,457
2017-08-23T08:24:41.324Z,802
2017-08-23T08:25:43.851Z,892
2017-08-23T08:26:47.044Z,828
2017-08-23T08:27:49.904Z,862
2017-08-23T08:28:52.423Z,621
2017-08-23T08:29:55.286Z,497
2017-08-23T08:30:57.811Z,368
2017-08-23T08:32:00.987Z,284
2017-08-23T08:33:04.530Z,294
2017-08-23T08:34:07.378Z,354
2017-08-23T08:35:09.893Z,450
2017-08-23T08:36:12.422Z,482
2017-08-23T08:37:15.273Z,442
2017-08-23T08:38:17.784Z,478
2017-08-23T08:39:20.984Z,483
2017-08-23T08:40:23.500Z,512
2017-08-23T08:41:26.071Z,448
2017-08-23T08:42:28.998Z,471
2017-08-23T08:43:31.906Z,454
2017-08-23T08:44:35.123Z,480
2017-08-23T08:45:37.665Z,491
2017-08-23T08:46:40.192Z,479
2017-08-23T08:47:43.045Z,601
2017-08-23T08:48:46.231Z,615
2017-08-23T08:49:48.739Z,496
2017-08-23T08:50:51.258Z,452
2017-08-23T08:51:53.781Z,503
2017-08-23T08:52:56.303Z,558
2017-08-23T08:53:59.495Z,478
2017-08-23T08:55:02.148Z,473
2017-08-23T08:56:04.825Z,463
2017-08-23T08:57:07.942Z,436
2017-08-23T08:58:10.814Z,452
2017-08-23T08:59:13.339Z,464
2017-08-23T09:00:16.225Z,491
2017-08-23T09:01:19.081Z,500
2017-08-23T09:02:21.627Z,482
2017-08-23T09:03:27.436Z,501
2017-08-23T09:04:29.966Z,549
2017-08-23T09:05:32.831Z,720
2017-08-23T09:06:35.340Z,712
2017-08-23T09:07:37.902Z,563
2017-08-23T09:08:40.755Z,601
2017-08-23T09:09:43.642Z,577
2017-08-23T09:10:47.200Z,625
2017-08-23T09:11:49.707Z,413
2017-08-23T09:12:52.569Z,642
2017-08-23T09:13:55.428Z,694
2017-08-23T09:14:58.286Z,655
2017-08-23T09:16:00.823Z,685
2017-08-23T09:17:04.018Z,631
2017-08-23T09:18:06.893Z,569
2017-08-23T09:19:09.770Z,656
2017-08-23T09:20:12.632Z,619
2017-08-23T09:21:15.168Z,618
2017-08-23T09:22:18.040Z,611
2017-08-23T09:23:20.567Z,606
2017-08-23T09:24:23.103Z,599
2017-08-23T09:25:25.639Z,586
2017-08-23T09:26:28.852Z,626
2017-08-23T09:27:31.716Z,694
2017-08-23T09:28:34.225Z,718
2017-08-23T09:29:37.106Z,659
2017-08-23T09:30:39.978Z,664
2017-08-23T09:31:43.704Z,677
2017-08-23T09:32:46.221Z,678
2017-08-23T09:33:49.066Z,601
2017-08-23T09:34:51.590Z,565
2017-08-23T09:35:54.493Z,562
2017-08-23T09:36:57.011Z,585
2017-08-23T09:37:59.544Z,695
2017-08-23T09:39:02.405Z,513
2017-08-23T09:40:05.285Z,155
2017-08-23T09:41:08.842Z,214
2017-08-23T09:42:12.070Z,603
2017-08-23T09:43:15.278Z,590
2017-08-23T09:44:18.149Z,232
2017-08-23T09:45:20.699Z,625
2017-08-23T09:46:23.941Z,584
2017-08-23T09:47:26.809Z,562
2017-08-23T09:48:29.343Z,513
2017-08-23T09:49:31.865Z,551
2017-08-23T09:50:34.386Z,601
2017-08-23T09:51:36.923Z,630
2017-08-23T09:52:40.110Z,650
2017-08-23T09:53:42.629Z,703
2017-08-23T09:54:45.165Z,676
2017-08-23T09:55:47.688Z,690
2017-08-23T09:56:50.208Z,678
2017-08-23T09:57:53.074Z,666
2017-08-23T09:58:56.295Z,628
2017-08-23T09:59:58.827Z,680
2017-08-23T10:01:01.692Z,633
2017-08-23T10:02:04.204Z,597
2017-08-23T10:03:06.738Z,325
2017-08-23T10:04:09.257Z,501
2017-08-23T10:05:12.168Z,596
2017-08-23T10:06:14.704Z,696
2017-08-23T10:07:17.214Z,691
2017-08-23T10:08:20.088Z,668
2017-08-23T10:09:22.639Z,686
2017-08-23T10:10:25.162Z,738
2017-08-23T10:11:27.689Z,263
2017-08-23T10:12:30.210Z,203
2017-08-23T10:13:33.404Z,200
2017-08-23T10:14:35.941Z,204
2017-08-23T10:15:38.482Z,407
2017-08-23T10:16:41.036Z,303
2017-08-23T10:17:43.914Z,644
2017-08-23T10:18:46.787Z,588
2017-08-23T10:19:49.302Z,588
2017-08-23T10:20:52.178Z,625
2017-08-23T10:21:54.713Z,609
2017-08-23T10:22:57.927Z,615
2017-08-23T10:24:00.795Z,637
2017-08-23T10:25:03.666Z,585
2017-08-23T10:26:06.182Z,619
2017-08-23T10:27:09.057Z,302
2017-08-23T10:28:12.269Z,571
2017-08-23T10:29:15.486Z,385
2017-08-23T10:30:18.019Z,181
2017-08-23T10:31:20.904Z,436
2017-08-23T10:32:23.448Z,239
2017-08-23T10:33:25.993Z,164
2017-08-23T10:34:28.533Z,142
2017-08-23T10:35:31.061Z,131
2017-08-23T10:36:33.590Z,132
2017-08-23T10:37:36.457Z,134
2017-08-23T10:38:38.978Z,504
2017-08-23T10:39:41.868Z,626
2017-08-23T10:40:45.081Z,644
2017-08-23T10:41:48.325Z,655
2017-08-23T10:42:50.842Z,723
2017-08-23T10:43:53.394Z,732
2017-08-23T10:44:56.311Z,657
2017-08-23T10:45:59.178Z,656
2017-08-23T10:47:02.404Z,678
2017-08-23T10:48:05.275Z,649
2017-08-23T10:49:08.126Z,669
2017-08-23T10:50:10.999Z,717
2017-08-23T10:51:13.528Z,702
2017-08-23T10:52:16.378Z,643
2017-08-23T10:53:18.905Z,655
2017-08-23T10:54:21.468Z,720
2017-08-23T10:55:24.345Z,720
2017-08-23T10:56:26.896Z,658
2017-08-23T10:57:29.416Z,698
2017-08-23T10:58:32.294Z,782
2017-08-23T10:59:35.513Z,751
2017-08-23T11:00:38.410Z,695
2017-08-23T11:01:41.949Z,721
2017-08-23T11:02:44.480Z,750
2017-08-23T11:03:47.015Z,780
2017-08-23T11:04:50.587Z,636
2017-08-23T11:05:53.103Z,590
2017-08-23T11:06:55.633Z,606
2017-08-23T11:07:58.487Z,642
2017-08-23T11:09:01.697Z,630
2017-08-23T11:10:04.565Z,631
2017-08-23T11:11:08.099Z,630
2017-08-23T11:12:10.972Z,579
2017-08-23T11:13:14.215Z,692
2017-08-23T11:14:17.106Z,685
2017-08-23T11:15:19.655Z,622
2017-08-23T11:16:22.861Z,827
2017-08-23T11:17:25.744Z,818
2017-08-23T11:18:28.307Z,608
2017-08-23T11:19:31.513Z,629
2017-08-23T11:20:34.376Z,630
2017-08-23T11:21:36.885Z,635
2017-08-23T11:22:40.446Z,637
2017-08-23T11:23:43.009Z,636
2017-08-23T11:24:45.547Z,619
2017-08-23T11:25:48.068Z,616
2017-08-23T11:26:51.287Z,585
2017-08-23T11:27:53.820Z,580
2017-08-23T11:28:56.352Z,567
2017-08-23T11:29:58.875Z,553
2017-08-23T11:31:01.775Z,619
2017-08-23T11:32:04.665Z,764
2017-08-23T11:33:07.227Z,669
2017-08-23T11:34:10.450Z,670
2017-08-23T11:35:12.983Z,672
2017-08-23T11:36:15.511Z,636
2017-08-23T11:37:18.049Z,626
2017-08-23T11:38:20.616Z,630
2017-08-23T11:39:23.150Z,595
2017-08-23T11:40:25.733Z,629
2017-08-23T11:41:28.273Z,668
2017-08-23T11:42:31.164Z,696
2017-08-23T11:43:34.726Z,676
2017-08-23T11:44:37.607Z,638
2017-08-23T11:45:40.485Z,660
2017-08-23T11:46:43.351Z,708
2017-08-23T11:47:45.872Z,616
2017-08-23T11:48:48.412Z,757
2017-08-23T11:49:50.950Z,637
2017-08-23T11:50:53.868Z,570
2017-08-23T11:51:56.418Z,598
2017-08-23T11:52:59.298Z,652
2017-08-23T11:54:02.569Z,574
2017-08-23T11:55:05.670Z,944
2017-08-23T11:56:08.203Z,977
2017-08-23T11:57:10.754Z,603
2017-08-23T11:58:13.974Z,594
2017-08-23T11:59:16.825Z,572
2017-08-23T12:00:19.372Z,670
2017-08-23T12:01:21.898Z,753
2017-08-23T12:02:24.773Z,713
2017-08-23T12:03:27.644Z,696
2017-08-23T12:04:30.160Z,626
2017-08-23T12:05:33.044Z,627
2017-08-23T12:06:35.590Z,627
2017-08-23T12:07:38.456Z,647
2017-08-23T12:08:40.965Z,580
2017-08-23T12:09:43.495Z,516
2017-08-23T12:10:46.378Z,595
2017-08-23T12:11:48.916Z,602
2017-08-23T12:12:51.443Z,628
2017-08-23T12:13:54.308Z,676
2017-08-23T12:14:57.170Z,689
2017-08-23T12:16:00.071Z,640
2017-08-23T12:17:03.666Z,586
2017-08-23T12:18:06.538Z,599
2017-08-23T12:19:09.074Z,520
2017-08-23T12:20:11.605Z,562
2017-08-23T12:21:14.122Z,599
2017-08-23T12:22:16.988Z,607
2017-08-23T12:23:19.861Z,652
2017-08-23T12:24:22.381Z,585
2017-08-23T12:25:24.919Z,542
2017-08-23T12:26:27.452Z,564
2017-08-23T12:27:29.981Z,643
2017-08-23T12:28:32.516Z,720
2017-08-23T12:29:35.725Z,666
2017-08-23T12:30:38.938Z,597
2017-08-23T12:31:41.829Z,563
2017-08-23T12:32:44.344Z,550
2017-08-23T12:33:46.886Z,638
2017-08-23T12:34:49.757Z,638
2017-08-23T12:35:52.958Z,578
2017-08-23T12:36:55.484Z,622
2017-08-23T12:37:58.014Z,648
2017-08-23T12:39:01.208Z,589
2017-08-23T12:40:04.086Z,557
2017-08-23T12:41:06.941Z,622
2017-08-23T12:42:10.505Z,696
2017-08-23T12:43:13.377Z,712
2017-08-23T12:44:16.257Z,655
2017-08-23T12:45:18.788Z,722
2017-08-23T12:46:21.311Z,718
2017-08-23T12:47:24.877Z,567
2017-08-23T12:48:27.753Z,617
2017-08-23T12:49:30.285Z,582
2017-08-23T12:50:33.512Z,897
2017-08-23T12:51:36.048Z,924
2017-08-23T12:52:38.578Z,513
2017-08-23T12:53:41.117Z,474
2017-08-23T12:54:43.978Z,575
2017-08-23T12:55:46.529Z,603
2017-08-23T12:56:49.078Z,486
2017-08-23T12:57:52.278Z,488
2017-08-23T12:58:55.177Z,538
2017-08-23T12:59:58.039Z,512
2017-08-23T13:01:00.914Z,550
2017-08-23T13:02:03.773Z,561
2017-08-23T13:03:07.001Z,508
2017-08-23T13:04:10.231Z,550
2017-08-23T13:05:13.112Z,461
2017-08-23T13:06:16.340Z,461
2017-08-23T13:07:18.873Z,485
2017-08-23T13:08:21.388Z,533
2017-08-23T13:09:23.915Z,536
2017-08-23T13:10:27.138Z,505
2017-08-23T13:11:29.674Z,522
2017-08-23T13:12:32.568Z,482
2017-08-23T13:13:35.432Z,400
2017-08-23T13:14:37.958Z,399
2017-08-23T13:15:40.833Z,473
2017-08-23T13:16:43.384Z,456
2017-08-23T13:17:46.262Z,439
2017-08-23T13:18:48.800Z,426
2017-08-23T13:19:51.330Z,415
2017-08-23T13:20:54.250Z,433
2017-08-23T13:21:56.785Z,424
2017-08-23T13:23:00.340Z,396
2017-08-23T13:24:03.217Z,427
2017-08-23T13:25:06.305Z,496
2017-08-23T13:26:08.905Z,471
2017-08-23T13:27:11.456Z,439
2017-08-23T13:28:14.730Z,444
2017-08-23T13:29:17.263Z,451
2017-08-23T13:30:19.816Z,481
2017-08-23T13:31:22.746Z,465
2017-08-23T13:32:25.965Z,446
2017-08-23T13:33:28.504Z,403
2017-08-23T13:34:31.057Z,402
2017-08-23T13:35:33.932Z,473
2017-08-23T13:36:36.829Z,408
2017-08-23T13:37:39.701Z,364
2017-08-23T13:38:42.581Z,396
2017-08-23T13:39:45.122Z,470
2017-08-23T13:40:48.333Z,484
2017-08-23T13:41:51.535Z,429
2017-08-23T13:42:54.069Z,406
2017-08-23T13:43:56.617Z,392
2017-08-23T13:44:59.539Z,397
2017-08-23T13:46:03.179Z,422
2017-08-23T13:47:06.072Z,434
2017-08-23T13:48:08.610Z,424
2017-08-23T13:49:11.145Z,459
2017-08-23T13:50:13.694Z,482
2017-08-23T13:51:16.230Z,461
2017-08-23T13:52:18.802Z,415
2017-08-23T13:53:21.325Z,408
2017-08-23T13:54:24.200Z,411
2017-08-23T13:55:26.737Z,428
2017-08-23T13:56:29.265Z,447
2017-08-23T13:57:31.799Z,425
2017-08-23T13:58:34.353Z,427
2017-08-23T13:59:37.215Z,389
2017-08-23T14:00:40.767Z,361
2017-08-23T14:01:43.843Z,402
2017-08-23T14:02:47.753Z,443
2017-08-23T14:03:50.294Z,399
2017-08-23T14:04:53.528Z,360
2017-08-23T14:05:56.712Z,358
2017-08-23T14:06:59.933Z,370
2017-08-23T14:08:03.154Z,373
2017-08-23T14:09:06.366Z,361
2017-08-23T14:10:08.892Z,369
2017-08-23T14:11:11.780Z,379
2017-08-23T14:12:14.696Z,361
2017-08-23T14:13:17.598Z,340
2017-08-23T14:14:20.128Z,342
2017-08-23T14:15:22.654Z,348
2017-08-23T14:16:25.188Z,329
2017-08-23T14:17:28.068Z,321
2017-08-23T14:18:30.619Z,349
2017-08-23T14:19:33.151Z,331
2017-08-23T14:20:36.042Z,319
2017-08-23T14:21:38.586Z,179
2017-08-23T14:22:41.112Z,149
2017-08-23T14:23:43.646Z,320
2017-08-23T14:24:46.522Z,282
2017-08-23T14:25:49.415Z,255
2017-08-23T14:26:51.977Z,297
2017-08-23T14:27:55.185Z,266
2017-08-23T14:28:58.052Z,307
2017-08-23T14:30:00.925Z,348
2017-08-23T14:31:03.484Z,332
2017-08-23T14:32:07.030Z,317
2017-08-23T14:33:09.577Z,298
2017-08-23T14:34:12.811Z,308
2017-08-23T14:35:15.352Z,316
2017-08-23T14:36:17.895Z,320
2017-08-23T14:37:20.411Z,305
2017-08-23T14:38:23.292Z,294
2017-08-23T14:39:25.829Z,306
2017-08-23T14:40:28.724Z,165
2017-08-23T14:41:31.265Z,140
2017-08-23T14:42:34.491Z,225
2017-08-23T14:43:37.019Z,306
2017-08-23T14:44:39.911Z,287
2017-08-23T14:45:42.821Z,293
2017-08-23T14:46:45.357Z,279
2017-08-23T14:47:48.582Z,264
2017-08-23T14:48:51.114Z,266
2017-08-23T14:49:53.659Z,275
2017-08-23T14:50:56.204Z,269